Time;durP1;ratioP1;P1;durP2;ratioP2;P2;SDS_P1;SDS_P2;PMS_P1;PMS_P2;Temp;Humidity;BMP_temperature;BMP_pressure;BME280_temperature;BME280_humidity;BME280_pressure;Samples;Min_cycle;Max_cycle;Signal;HPM_P1;HPM_P2
2023/03/21 00:01:04;;;;;;;0.40;0.40;;;;;;;9.30;100.00;100047.13;6094409;23;20606;-93
2023/03/21 00:03:32;;;;;;;1.90;1.75;;;;;;;9.15;100.00;100040.34;6119927;23;20014;-95
2023/03/21 00:05:58;;;;;;;0.52;0.52;;;;;;;9.03;100.00;100027.16;6118445;23;20014;-94
2023/03/21 00:08:25;;;;;;;1.60;1.50;;;;;;;9.03;100.00;100043.75;6120380;23;20405;-92
2023/03/21 00:11:01;;;;;;;0.70;0.65;;;;;;;8.91;100.00;100036.09;6119043;23;20250;-93
2023/03/21 00:13:31;;;;;;;2.10;1.90;;;;;;;8.79;100.00;100043.03;6120368;23;20065;-93
2023/03/21 00:16:08;;;;;;;1.50;1.05;;;;;;;8.60;100.00;100016.16;6117835;23;20348;-93
2023/03/21 00:18:40;;;;;;;1.10;0.98;;;;;;;8.55;100.00;100032.44;6120512;23;20022;-94
2023/03/21 00:21:07;;;;;;;1.70;1.42;;;;;;;8.54;100.00;100039.19;6143318;23;20317;-93
2023/03/21 00:23:33;;;;;;;1.17;1.08;;;;;;;8.27;100.00;100017.13;6119885;23;20345;-93
2023/03/21 00:25:59;;;;;;;1.42;1.17;;;;;;;8.32;100.00;100036.03;6119105;23;20018;-93
2023/03/21 00:28:26;;;;;;;1.25;1.15;;;;;;;8.16;100.00;100038.66;6120043;23;20364;-93
2023/03/21 00:30:59;;;;;;;2.95;1.25;;;;;;;8.12;100.00;100027.66;6118462;23;20010;-93
2023/03/21 00:33:25;;;;;;;1.02;0.98;;;;;;;8.15;100.00;100034.31;6119538;23;20053;-93
2023/03/21 00:35:52;;;;;;;0.57;0.55;;;;;;;8.03;100.00;100013.59;6120412;23;20093;-93
2023/03/21 00:38:19;;;;;;;0.10;0.10;;;;;;;8.10;100.00;100032.03;6118080;23;20026;-93
2023/03/21 00:40:45;;;;;;;0.80;0.80;;;;;;;8.14;100.00;100028.00;6118293;23;20010;-94
2023/03/21 00:43:11;;;;;;;1.30;1.00;;;;;;;8.12;100.00;100032.41;6120277;23;20018;-93
2023/03/21 00:45:37;;;;;;;3.97;0.98;;;;;;;8.11;100.00;100028.84;6093448;23;20009;-92
2023/03/21 00:48:04;;;;;;;0.52;0.47;;;;;;;7.94;100.00;100007.81;6120186;23;20154;-92
2023/03/21 00:50:31;;;;;;;0.30;0.30;;;;;;;7.93;100.00;100017.31;6092994;23;20014;-93
2023/03/21 00:52:57;;;;;;;3.50;1.10;;;;;;;7.77;100.00;100009.66;6118701;23;20020;-92
2023/03/21 00:55:23;;;;;;;1.50;1.40;;;;;;;7.76;100.00;100012.88;6118982;23;20010;-94
2023/03/21 00:57:49;;;;;;;2.03;1.70;;;;;;;7.78;100.00;100025.03;6117850;23;20328;-93
2023/03/21 01:00:16;;;;;;;1.27;1.17;;;;;;;7.70;100.00;100025.56;6095809;23;20042;-94
2023/03/21 01:02:55;;;;;;;1.70;1.60;;;;;;;7.66;100.00;100013.78;6095026;23;20368;-93
2023/03/21 01:08:19;;;;;;;2.08;1.58;;;;;;;7.83;100.00;100021.03;6123778;23;20466;-93
2023/03/21 01:10:46;;;;;;;1.20;1.10;;;;;;;7.82;100.00;100005.66;6120122;23;20002;-92
2023/03/21 01:13:13;;;;;;;1.23;0.68;;;;;;;7.91;100.00;100019.72;6121042;23;20061;-94
2023/03/21 01:15:46;;;;;;;1.48;1.38;;;;;;;7.92;100.00;100001.94;6121698;23;20056;-94
2023/03/21 01:18:12;;;;;;;1.20;0.60;;;;;;;7.91;100.00;99987.34;6122002;23;20101;-93
2023/03/21 01:20:40;;;;;;;1.42;1.33;;;;;;;8.01;100.00;99991.13;6097894;23;20473;-93
2023/03/21 01:23:06;;;;;;;0.20;0.20;;;;;;;8.10;100.00;99994.13;6121068;23;20018;-93
2023/03/21 01:25:32;;;;;;;1.33;1.23;;;;;;;8.04;100.00;100001.34;6121897;23;20014;-94
2023/03/21 01:27:58;;;;;;;1.20;1.10;;;;;;;7.78;100.00;99993.88;6122808;23;20006;-93
2023/03/21 01:30:23;;;;;;;1.02;0.68;;;;;;;7.72;100.00;100006.63;6119000;23;20053;-93
2023/03/21 01:32:49;;;;;;;0.32;0.32;;;;;;;7.47;100.00;99993.97;6119442;23;20081;-92
2023/03/21 01:35:15;;;;;;;1.48;1.38;;;;;;;7.43;100.00;99995.22;6095436;23;20021;-92
2023/03/21 01:37:40;;;;;;;0.50;0.50;;;;;;;7.19;100.00;99991.63;6121587;23;20001;-94
2023/03/21 01:40:11;;;;;;;0.45;0.45;;;;;;;7.04;100.00;99987.47;6095633;23;20018;-92
2023/03/21 01:42:39;;;;;;;1.20;1.00;;;;;;;6.84;100.00;99987.34;6120018;23;20022;-92
2023/03/21 01:45:45;;;;;;;0.45;0.45;;;;;;;6.79;100.00;99984.28;6097094;23;20152;-94
2023/03/21 01:48:12;;;;;;;0.43;0.43;;;;;;;6.75;100.00;100000.84;6121666;23;20162;-93
2023/03/21 01:50:45;;;;;;;1.85;1.20;;;;;;;6.77;100.00;99998.47;6120704;23;20013;-92
2023/03/21 01:53:28;;;;;;;1.00;1.00;;;;;;;6.75;100.00;99992.59;6100802;23;20018;-92
2023/03/21 01:55:56;;;;;;;1.25;1.23;;;;;;;6.78;100.00;99988.22;6130670;23;20124;-91
2023/03/21 01:58:43;;;;;;;0.38;0.38;;;;;;;6.80;100.00;99992.09;6115904;23;20471;-93
2023/03/21 02:04:26;;;;;;;0.63;0.63;;;;;;;7.06;100.00;99998.09;6073321;23;20109;-86
2023/03/21 02:07:09;;;;;;;0.63;0.52;;;;;;;7.18;100.00;99987.28;6066890;23;20464;-86
2023/03/21 02:09:45;;;;;;;1.17;0.75;;;;;;;7.29;100.00;99992.66;6088999;23;20026;-86
2023/03/21 02:12:15;;;;;;;1.90;1.77;;;;;;;7.31;100.00;99977.25;6091428;23;20412;-86
2023/03/21 02:14:41;;;;;;;1.65;1.20;;;;;;;7.33;100.00;99966.56;6090345;23;20017;-86
2023/03/21 02:17:34;;;;;;;0.35;0.35;;;;;;;7.42;100.00;99975.13;6093905;23;20041;-86
2023/03/21 02:20:31;;;;;;;0.30;0.30;;;;;;;7.45;100.00;99973.50;6094344;23;20018;-94
2023/03/21 02:23:32;;;;;;;0.57;0.57;;;;;;;7.40;100.00;99969.22;6119049;23;20105;-94
2023/03/21 02:26:17;;;;;;;0.68;0.60;;;;;;;7.32;100.00;99962.25;6068766;23;20041;-95
2023/03/21 02:29:02;;;;;;;0.60;0.15;;;;;;;7.26;100.00;99974.97;6095437;23;20030;-94
2023/03/21 02:31:56;;;;;;;3.40;0.77;;;;;;;6.97;100.00;99979.28;6094563;23;20022;-95
2023/03/21 02:34:54;;;;;;;0.85;0.82;;;;;;;6.84;100.00;99972.75;6096007;23;20018;-95
2023/03/21 02:37:28;;;;;;;0.20;0.20;;;;;;;6.56;100.00;99971.91;6069806;23;20023;-93
2023/03/21 02:40:09;;;;;;;0.93;0.93;;;;;;;6.44;100.00;99979.94;6094125;23;20070;-93
2023/03/21 02:43:00;;;;;;;1.08;0.98;;;;;;;6.31;100.00;99976.91;6118261;23;20048;-93
2023/03/21 02:45:37;;;;;;;2.10;1.83;;;;;;;6.18;100.00;99975.88;6093913;23;20027;-95
2023/03/21 02:48:09;;;;;;;1.70;1.40;;;;;;;6.18;100.00;99984.16;6093490;23;20022;-86
2023/03/21 02:50:41;;;;;;;2.28;2.03;;;;;;;6.20;100.00;99979.00;6093462;23;20014;-86
2023/03/21 02:53:09;;;;;;;1.88;1.42;;;;;;;6.17;100.00;99976.28;6093479;23;20466;-86
2023/03/21 02:55:37;;;;;;;6.28;3.45;;;;;;;6.22;100.00;99965.63;6091401;23;20116;-86
2023/03/21 02:58:06;;;;;;;0.68;0.68;;;;;;;6.24;100.00;99977.00;6091610;23;20052;-86
2023/03/21 03:00:32;;;;;;;1.15;1.10;;;;;;;6.26;100.00;99977.38;6091529;23;20018;-87
2023/03/21 03:02:59;;;;;;;0.80;0.80;;;;;;;6.22;100.00;99976.63;6091127;23;20106;-86
2023/03/21 03:05:30;;;;;;;1.10;1.10;;;;;;;6.26;100.00;99973.84;6091263;23;20021;-86
2023/03/21 03:08:17;;;;;;;0.10;0.10;;;;;;;6.47;100.00;99966.09;6066809;23;20138;-86
2023/03/21 03:10:59;;;;;;;0.50;0.50;;;;;;;6.64;100.00;99956.06;6067702;23;20022;-86
2023/03/21 03:13:51;;;;;;;0.00;0.00;;;;;;;6.71;100.00;99947.75;6091410;23;20097;-86
2023/03/21 03:16:18;;;;;;;0.55;0.55;;;;;;;6.90;100.00;99957.34;6090651;23;20404;-86
2023/03/21 03:19:00;;;;;;;1.85;1.02;;;;;;;6.99;100.00;99960.38;6093184;23;20461;-86
2023/03/21 03:21:36;;;;;;;0.40;0.30;;;;;;;7.13;100.00;99960.16;6092894;23;20014;-87
2023/03/21 03:24:16;;;;;;;0.32;0.30;;;;;;;7.19;100.00;99950.25;6067621;23;20014;-86
2023/03/21 03:26:51;;;;;;;4.28;2.08;;;;;;;7.19;100.00;99952.22;6068304;23;20049;-86
2023/03/21 03:29:18;;;;;;;0.38;0.38;;;;;;;7.26;100.00;99952.88;6090954;23;20448;-86
2023/03/21 03:31:54;;;;;;;1.73;1.60;;;;;;;7.41;100.00;99968.03;6067418;23;20065;-86
2023/03/21 03:34:25;;;;;;;0.77;0.70;;;;;;;7.47;100.00;99951.78;6091869;23;20019;-86
2023/03/21 03:36:55;;;;;;;0.40;0.40;;;;;;;7.47;100.00;99958.09;6091251;23;20583;-87
2023/03/21 03:39:31;;;;;;;0.90;0.65;;;;;;;7.59;100.00;99972.50;6091052;23;20038;-86
2023/03/21 03:42:00;;;;;;;0.10;0.10;;;;;;;7.62;100.00;99963.38;6091601;23;20468;-86
2023/03/21 03:44:30;;;;;;;0.32;0.32;;;;;;;7.67;100.00;99960.16;6092334;23;20019;-94
2023/03/21 03:47:16;;;;;;;2.72;1.65;;;;;;;7.80;100.00;99961.91;6070115;23;20047;-94
2023/03/21 03:49:56;;;;;;;1.30;1.13;;;;;;;7.92;100.00;99960.53;6069179;23;20129;-95
2023/03/21 03:52:28;;;;;;;0.32;0.32;;;;;;;7.95;100.00;99954.16;6096794;23;20018;-93
2023/03/21 03:55:00;;;;;;;0.50;0.50;;;;;;;8.08;100.00;99966.16;6079632;23;20018;-93
2023/03/21 03:57:31;;;;;;;0.20;0.20;;;;;;;8.18;100.00;99967.94;6080039;23;20014;-94
2023/03/21 03:59:57;;;;;;;0.65;0.65;;;;;;;8.24;100.00;99959.94;6125090;23;20017;-95
2023/03/21 04:02:42;;;;;;;0.30;0.30;;;;;;;8.15;100.00;99962.47;6093556;23;20022;-95
2023/03/21 04:05:08;;;;;;;0.20;0.20;;;;;;;8.05;100.00;99953.16;6069445;23;20019;-96
2023/03/21 04:07:34;;;;;;;0.17;0.17;;;;;;;8.08;100.00;99952.34;6093750;23;20025;-94
2023/03/21 04:10:00;;;;;;;0.40;0.40;;;;;;;8.24;100.00;99969.03;6074858;23;20037;-93
2023/03/21 04:12:26;;;;;;;0.70;0.70;;;;;;;8.30;100.00;99956.28;6122475;23;20065;-90
2023/03/21 04:15:10;;;;;;;0.60;0.60;;;;;;;8.37;100.00;99958.91;6123862;23;20056;-95
2023/03/21 04:17:38;;;;;;;1.98;1.13;;;;;;;8.50;100.00;99963.81;6098976;23;20440;-94
2023/03/21 04:20:06;;;;;;;0.20;0.20;;;;;;;8.51;100.00;99957.88;6074378;23;20109;-95
2023/03/21 04:22:32;;;;;;;0.10;0.10;;;;;;;8.58;100.00;99973.53;6098346;23;20069;-94
2023/03/21 04:25:00;;;;;;;0.22;0.22;;;;;;;8.59;100.00;99964.81;6097204;23;20022;-94
2023/03/21 04:27:26;;;;;;;0.10;0.10;;;;;;;8.65;100.00;99973.41;6097448;23;20346;-95
2023/03/21 04:30:18;;;;;;;1.30;1.23;;;;;;;8.66;100.00;99977.72;6122561;23;20317;-87
2023/03/21 04:32:55;;;;;;;0.10;0.10;;;;;;;8.60;100.00;99951.78;6072891;23;20100;-86
2023/03/21 04:35:23;;;;;;;0.25;0.25;;;;;;;8.70;100.00;99970.13;6072134;23;20022;-86
2023/03/21 04:37:49;;;;;;;1.02;0.43;;;;;;;8.68;100.00;99978.09;6095195;23;20021;-86
2023/03/21 04:40:17;;;;;;;0.05;0.05;;;;;;;8.66;100.00;99970.22;6095986;23;20013;-87
2023/03/21 04:42:44;;;;;;;0.00;0.00;;;;;;;8.66;100.00;99969.41;6095636;23;20014;-86
2023/03/21 04:45:11;;;;;;;0.32;0.32;;;;;;;8.66;100.00;99964.69;6095307;23;20392;-86
2023/03/21 04:47:37;;;;;;;0.55;0.55;;;;;;;8.69;100.00;99974.13;6094707;23;20002;-86
2023/03/21 04:50:03;;;;;;;1.27;0.63;;;;;;;8.69;100.00;99963.06;6097944;23;20025;-86
2023/03/21 04:52:29;;;;;;;0.10;0.10;;;;;;;8.71;100.00;99975.25;6097307;23;20463;-87
2023/03/21 04:54:55;;;;;;;0.50;0.43;;;;;;;8.67;100.00;99954.41;6073745;23;20100;-86
2023/03/21 04:57:22;;;;;;;0.25;0.25;;;;;;;8.73;100.00;99966.53;6073500;23;20014;-86
2023/03/21 04:59:48;;;;;;;0.30;0.30;;;;;;;8.73;100.00;99952.72;6099066;23;20472;-93
2023/03/21 05:02:14;;;;;;;1.10;0.85;;;;;;;8.71;100.00;99968.94;6099120;23;20056;-93
2023/03/21 05:04:40;;;;;;;0.93;0.93;;;;;;;8.70;100.00;99964.59;6074997;23;20022;-94
2023/03/21 05:07:07;;;;;;;0.15;0.15;;;;;;;8.79;100.00;99967.59;6099770;23;20018;-96
2023/03/21 05:09:33;;;;;;;0.45;0.45;;;;;;;8.76;100.00;99962.91;6123995;23;20020;-87
2023/03/21 05:11:59;;;;;;;0.85;0.50;;;;;;;8.80;100.00;99969.16;6096676;23;20013;-86
2023/03/21 05:14:27;;;;;;;1.88;0.93;;;;;;;8.86;100.00;99973.75;6096258;23;20440;-87
2023/03/21 05:16:56;;;;;;;0.17;0.17;;;;;;;8.89;100.00;99972.91;6072054;23;20064;-86
2023/03/21 05:19:39;;;;;;;0.93;0.93;;;;;;;8.92;100.00;99982.34;6122368;23;20070;-86
2023/03/21 05:22:08;;;;;;;0.20;0.20;;;;;;;8.96;100.00;99983.03;6098675;23;20073;-86
2023/03/21 05:24:36;;;;;;;0.40;0.40;;;;;;;8.86;100.00;99967.44;6096877;23;20010;-86
2023/03/21 05:27:02;;;;;;;0.82;0.63;;;;;;;8.98;100.00;99977.84;6073319;23;20032;-85
2023/03/21 05:29:31;;;;;;;0.20;0.20;;;;;;;9.05;100.00;99974.16;6144526;23;20052;-86
2023/03/21 05:32:01;;;;;;;0.55;0.47;;;;;;;9.13;100.00;99989.41;6095933;23;20072;-85
2023/03/21 05:34:27;;;;;;;0.35;0.35;;;;;;;9.18;100.00;99991.69;6122606;23;20085;-86
2023/03/21 05:36:54;;;;;;;0.00;0.00;;;;;;;9.18;100.00;99989.66;6094234;23;20443;-86
2023/03/21 05:39:21;;;;;;;4.68;0.77;;;;;;;9.21;100.00;99991.59;6122776;23;20072;-93
2023/03/21 05:42:09;;;;;;;1.02;0.93;;;;;;;9.29;100.00;99995.75;6123700;23;20010;-96
2023/03/21 05:44:36;;;;;;;0.73;0.40;;;;;;;9.30;100.00;100000.06;6121454;23;20028;-93
2023/03/21 05:47:04;;;;;;;0.40;0.40;;;;;;;9.25;100.00;99995.06;6095864;23;20051;-92
2023/03/21 05:49:38;;;;;;;0.20;0.20;;;;;;;9.31;100.00;100003.63;6095298;23;20026;-94
2023/03/21 05:52:04;;;;;;;0.63;0.63;;;;;;;9.26;100.00;99993.84;6095120;23;20037;-94
2023/03/21 05:54:30;;;;;;;0.17;0.17;;;;;;;9.30;100.00;99991.00;6094328;23;20006;-94
2023/03/21 05:56:57;;;;;;;1.55;0.57;;;;;;;9.33;100.00;100002.00;6144132;23;20025;-94
2023/03/21 05:59:41;;;;;;;;;;;;;;;9.38;100.00;99997.16;6123016;23;20077;-93
2023/03/21 06:02:07;;;;;;;11.70;1.27;;;;;;;9.35;100.00;99994.03;6117742;23;20007;-94
2023/03/21 06:04:32;;;;;;;0.63;0.63;;;;;;;9.28;100.00;99993.41;6145027;23;20026;-94
2023/03/21 06:06:58;;;;;;;0.80;0.68;;;;;;;9.36;100.00;100008.66;6093216;23;20092;-86
2023/03/21 06:09:24;;;;;;;0.35;0.28;;;;;;;9.32;100.00;99999.66;6116675;23;20037;-86
2023/03/21 06:11:55;;;;;;;1.95;1.70;;;;;;;9.40;100.00;100014.09;6092027;23;20399;-86
2023/03/21 06:14:29;;;;;;;0.30;0.30;;;;;;;9.31;100.00;99993.34;6070800;23;20048;-86
2023/03/21 06:17:20;;;;;;;0.93;0.70;;;;;;;9.38;100.00;100009.78;6142049;23;20036;-86
2023/03/21 06:19:51;;;;;;;3.20;1.45;;;;;;;9.43;100.00;99993.88;6119400;23;20018;-86
2023/03/21 06:22:25;;;;;;;1.00;0.57;;;;;;;9.55;100.00;99999.50;6117597;23;20026;-86
2023/03/21 06:24:50;;;;;;;1.10;1.10;;;;;;;9.72;100.00;100011.38;6072410;23;20028;-86
2023/03/21 06:27:17;;;;;;;0.30;0.30;;;;;;;9.78;100.00;100004.13;6118016;23;20028;-86
2023/03/21 06:29:49;;;;;;;0.57;0.57;;;;;;;9.92;100.00;99998.22;6094200;23;20018;-86
2023/03/21 06:32:15;;;;;;;0.10;0.10;;;;;;;9.99;100.00;100002.84;6071231;23;20165;-86
2023/03/21 06:34:42;;;;;;;0.65;0.65;;;;;;;10.11;100.00;100005.66;6073327;23;20024;-86
2023/03/21 06:37:11;;;;;;;0.95;0.68;;;;;;;10.22;100.00;100011.78;6119675;23;20017;-93
2023/03/21 06:39:37;;;;;;;0.47;0.43;;;;;;;10.29;100.00;100008.81;6099981;23;20467;-94
2023/03/21 06:42:03;;;;;;;0.60;0.60;;;;;;;10.46;100.00;100030.97;6096983;23;20014;-93
2023/03/21 06:44:29;;;;;;;0.70;0.70;;;;;;;10.54;100.00;100010.91;6074032;23;20768;-94
2023/03/21 06:47:00;;;;;;;1.05;1.05;;;;;;;10.66;100.00;100012.97;6074361;23;20022;-95
2023/03/21 06:49:27;;;;;;;1.20;0.50;;;;;;;10.78;100.00;100025.31;6097652;23;20022;-93
2023/03/21 06:51:55;;;;;;;0.52;0.52;;;;;;;10.78;100.00;100014.22;6123904;23;20032;-92
2023/03/21 06:54:20;;;;;;;0.35;0.35;;;;;;;10.92;100.00;100018.63;6097535;23;20402;-94
2023/03/21 06:56:59;;;;;;;1.77;1.48;;;;;;;11.03;100.00;100019.84;6102703;23;20013;-96
2023/03/21 06:59:28;;;;;;;0.13;0.13;;;;;;;11.10;100.00;100022.41;6078778;23;20057;-93
2023/03/21 07:01:58;;;;;;;0.47;0.47;;;;;;;11.11;100.00;100017.66;6101603;23;20104;-94
2023/03/21 07:04:25;;;;;;;0.47;0.47;;;;;;;11.14;100.00;100003.66;6073093;23;20027;-86
2023/03/21 07:06:53;;;;;;;0.75;0.52;;;;;;;11.16;100.00;100017.88;6100019;23;20333;-87
2023/03/21 07:09:23;;;;;;;0.60;0.55;;;;;;;11.27;100.00;100025.13;6089237;23;20015;-86
2023/03/21 07:11:52;;;;;;;0.52;0.52;;;;;;;11.19;100.00;100021.78;6090103;23;20022;-86
2023/03/21 07:14:20;;;;;;;1.38;0.80;;;;;;;11.28;100.00;100030.25;6041286;23;20026;-86
2023/03/21 07:16:46;;;;;;;2.20;0.60;;;;;;;11.29;100.00;100028.22;6065848;23;20041;-86
2023/03/21 07:19:12;;;;;;;0.30;0.30;;;;;;;11.29;100.00;100014.34;6066173;23;20129;-87
2023/03/21 07:21:38;;;;;;;0.45;0.45;;;;;;;11.39;100.00;100018.81;6044285;23;20015;-95
2023/03/21 07:24:03;;;;;;;0.57;0.57;;;;;;;11.48;100.00;100011.38;6067536;23;19998;-94
2023/03/21 07:26:29;;;;;;;0.28;0.28;;;;;;;11.51;100.00;100009.69;6068134;23;20026;-96
2023/03/21 07:28:57;;;;;;;0.47;0.47;;;;;;;11.60;100.00;100030.06;6092184;23;20330;-95
2023/03/21 07:31:25;;;;;;;0.25;0.25;;;;;;;11.60;100.00;100018.94;6045154;23;20034;-96
2023/03/21 07:33:52;;;;;;;1.65;1.10;;;;;;;11.80;100.00;100035.41;6092414;23;20436;-96
2023/03/21 07:36:17;;;;;;;1.25;0.40;;;;;;;11.73;100.00;100010.59;6092941;23;20018;-94
2023/03/21 07:38:44;;;;;;;0.05;0.05;;;;;;;11.97;100.00;100036.06;6094083;23;20054;-96
2023/03/21 07:41:11;;;;;;;0.70;0.70;;;;;;;12.04;100.00;100028.28;6047396;23;20017;-94
2023/03/21 07:43:36;;;;;;;0.13;0.13;;;;;;;12.13;100.00;100017.22;6094999;23;20010;-96
2023/03/21 07:46:05;;;;;;;0.35;0.28;;;;;;;12.54;100.00;100030.13;6070693;23;20089;-94
2023/03/21 07:48:30;;;;;;;0.10;0.10;;;;;;;12.67;100.00;100010.59;6093574;23;20023;-94
2023/03/21 07:50:56;;;;;;;1.70;0.68;;;;;;;12.74;99.64;100024.25;6095966;23;20022;-93
2023/03/21 07:53:22;;;;;;;0.95;0.75;;;;;;;12.76;100.00;100024.59;6070544;23;20038;-95
2023/03/21 07:55:54;;;;;;;0.70;0.43;;;;;;;12.70;100.00;100031.97;6047353;23;20022;-95
2023/03/21 07:58:20;;;;;;;0.47;0.47;;;;;;;12.94;99.35;100029.53;6094159;23;20022;-94
2023/03/21 08:00:46;;;;;;;0.22;0.22;;;;;;;13.27;96.15;100025.13;6045857;23;20010;-95
2023/03/21 08:03:12;;;;;;;0.82;0.82;;;;;;;13.62;92.09;100028.56;6041500;23;20019;-96
2023/03/21 08:05:38;;;;;;;1.30;1.17;;;;;;;13.99;90.64;100030.22;6092523;23;20448;-95
2023/03/21 08:08:04;;;;;;;0.43;0.43;;;;;;;14.20;86.00;100028.59;6074783;23;20024;-96
2023/03/21 08:10:30;;;;;;;1.30;1.20;;;;;;;14.47;84.64;99997.19;6073907;23;20101;-96
2023/03/21 08:12:55;;;;;;;0.77;0.60;;;;;;;14.61;80.36;100006.94;6099756;23;20761;-95
2023/03/21 08:15:21;;;;;;;1.05;0.98;;;;;;;14.99;80.52;100031.59;6098185;23;20028;-94
2023/03/21 08:17:48;;;;;;;0.93;0.80;;;;;;;15.17;75.68;100025.97;6098768;23;20416;-88
2023/03/21 08:20:17;;;;;;;0.28;0.22;;;;;;;15.38;76.76;100036.97;6095772;23;20041;-89
2023/03/21 08:22:43;;;;;;;0.65;0.65;;;;;;;15.60;74.30;100024.81;6121983;23;20093;-88
2023/03/21 08:25:12;;;;;;;0.10;0.10;;;;;;;15.97;72.60;100025.44;6096074;23;20498;-88
2023/03/21 08:27:40;;;;;;;1.67;1.00;;;;;;;15.70;70.37;100012.34;6072679;23;20061;-88
2023/03/21 08:30:06;;;;;;;2.95;1.00;;;;;;;15.86;70.89;100035.09;6071620;23;20022;-88
2023/03/21 08:32:32;;;;;;;3.60;1.10;;;;;;;15.91;69.49;100021.72;6119704;23;20013;-88
2023/03/21 08:35:00;;;;;;;0.40;0.22;;;;;;;15.98;67.50;100022.16;6096687;23;20010;-88
2023/03/21 08:37:27;;;;;;;1.13;0.65;;;;;;;16.11;66.93;100030.31;6095592;23;20014;-89
2023/03/21 08:39:52;;;;;;;1.25;0.38;;;;;;;16.31;63.75;100011.69;6118301;23;20347;-88
2023/03/21 08:42:19;;;;;;;0.22;0.22;;;;;;;16.64;62.72;100034.03;6092694;23;20010;-88
2023/03/21 08:44:45;;;;;;;0.22;0.22;;;;;;;16.18;62.90;100029.97;6071472;23;20093;-88
2023/03/21 08:47:10;;;;;;;0.32;0.30;;;;;;;16.15;63.08;100014.91;6069321;23;20045;-88
2023/03/21 08:49:36;;;;;;;0.95;0.50;;;;;;;16.47;61.87;100020.91;6095925;23;20002;-89
2023/03/21 08:52:02;;;;;;;2.17;0.73;;;;;;;16.64;61.67;100030.47;6071864;23;20028;-88
2023/03/21 08:54:28;;;;;;;1.15;0.50;;;;;;;16.66;61.80;100034.31;6071812;23;20092;-89
2023/03/21 08:56:53;;;;;;;0.52;0.52;;;;;;;16.78;61.07;100043.75;6072567;23;20016;-88
2023/03/21 08:59:19;;;;;;;0.68;0.68;;;;;;;16.87;60.02;100026.06;6072204;23;20440;-88
2023/03/21 09:01:45;;;;;;;0.10;0.10;;;;;;;16.99;58.59;100008.19;6095063;23;20001;-88
2023/03/21 09:04:11;;;;;;;0.47;0.47;;;;;;;17.08;57.86;100038.94;6078897;23;20022;-88
2023/03/21 09:06:39;;;;;;;1.50;0.88;;;;;;;16.84;56.55;100013.03;6080254;23;20016;-88
2023/03/21 09:09:06;;;;;;;0.20;0.20;;;;;;;17.06;56.85;100028.25;6096772;23;20055;-88
2023/03/21 09:11:33;;;;;;;0.20;0.20;;;;;;;17.13;55.55;100029.88;6078343;23;20033;-88
2023/03/21 09:14:17;;;;;;;1.38;0.60;;;;;;;17.17;55.13;100030.47;6099197;23;20014;-87
2023/03/21 09:16:43;;;;;;;0.32;0.32;;;;;;;17.40;55.45;100032.38;6100645;23;20022;-96
2023/03/21 09:19:09;;;;;;;0.38;0.38;;;;;;;17.65;52.79;100019.81;6101547;23;20018;-96
2023/03/21 09:21:34;;;;;;;0.00;0.00;;;;;;;17.57;52.19;100032.66;6077185;23;20018;-96
2023/03/21 09:24:01;;;;;;;0.50;0.50;;;;;;;17.76;52.83;100034.03;6077707;23;20048;-96
2023/03/21 09:26:27;;;;;;;0.25;0.25;;;;;;;18.16;51.29;100033.34;6102686;23;20364;-88
2023/03/21 09:28:54;;;;;;;0.95;0.93;;;;;;;17.81;50.00;100032.56;6071960;23;20034;-88
2023/03/21 09:31:23;;;;;;;0.77;0.70;;;;;;;17.39;51.52;100014.00;6094868;23;20018;-89
2023/03/21 09:33:50;;;;;;;0.65;0.52;;;;;;;17.54;50.83;100031.63;6096981;23;20017;-89
2023/03/21 09:36:19;;;;;;;0.70;0.70;;;;;;;17.55;48.71;100021.19;6098023;23;20085;-88
2023/03/21 09:38:46;;;;;;;0.25;0.25;;;;;;;17.75;48.37;100012.84;6097547;23;20037;-89
2023/03/21 09:41:36;;;;;;;0.20;0.20;;;;;;;18.12;47.91;100018.72;6074144;23;20014;-88
2023/03/21 09:44:26;;;;;;;0.38;0.38;;;;;;;18.08;46.80;100010.53;6106670;23;20034;-96
2023/03/21 09:47:05;;;;;;;0.20;0.20;;;;;;;18.10;46.41;100018.47;6094733;23;20025;-96
2023/03/21 09:49:35;;;;;;;0.77;0.77;;;;;;;18.02;45.35;100011.72;6133644;23;20018;-96
2023/03/21 09:52:05;;;;;;;10.68;0.75;;;;;;;18.30;45.20;100001.63;6110135;23;20025;-95
2023/03/21 09:54:39;;;;;;;0.57;0.55;;;;;;;18.76;43.28;100009.38;6136976;23;20089;-95
2023/03/21 09:57:24;;;;;;;19.75;0.98;;;;;;;18.91;42.50;100004.41;6098167;23;20014;-88
2023/03/21 09:59:52;;;;;;;0.30;0.30;;;;;;;19.06;43.13;99991.03;6096741;23;20096;-89
2023/03/21 10:02:18;;;;;;;0.10;0.10;;;;;;;19.31;42.07;100004.31;6097231;23;20010;-89
2023/03/21 10:04:45;;;;;;;0.40;0.17;;;;;;;19.47;42.88;100000.88;6097306;23;20029;-89
2023/03/21 10:07:16;;;;;;;1.13;0.95;;;;;;;19.36;41.09;100009.22;6073246;23;20014;-89
2023/03/21 10:09:43;;;;;;;0.38;0.30;;;;;;;18.49;40.77;99980.41;6098435;23;20044;-89
2023/03/21 10:12:20;;;;;;;0.38;0.38;;;;;;;18.46;43.54;99997.50;6073033;23;20010;-89
2023/03/21 10:14:53;;;;;;;0.43;0.43;;;;;;;18.79;42.71;100009.16;6097739;23;20109;-89
2023/03/21 10:17:28;;;;;;;;;;;;;;;18.94;42.14;100009.03;6146472;23;20038;-89
2023/03/21 10:20:12;;;;;;;0.10;0.10;;;;;;;19.02;41.60;99993.28;6123347;23;19983;-89
2023/03/21 10:22:37;;;;;;;0.80;0.70;;;;;;;19.34;40.73;100000.47;6080563;23;20022;-90
2023/03/21 10:25:04;;;;;;;0.30;0.30;;;;;;;19.39;41.00;99977.25;6067980;23;20038;-87
2023/03/21 10:27:32;;;;;;;1.30;0.57;;;;;;;19.79;40.75;99998.03;6088040;23;20077;-86
2023/03/21 10:29:59;;;;;;;1.52;1.10;;;;;;;19.52;40.26;99991.72;6087664;23;20034;-86
2023/03/21 10:32:25;;;;;;;0.20;0.20;;;;;;;19.21;41.32;99994.47;6086138;23;20204;-87
2023/03/21 10:34:56;;;;;;;1.13;0.40;;;;;;;18.94;41.40;99986.56;6086808;23;20140;-86
2023/03/21 10:37:22;;;;;;;0.25;0.25;;;;;;;18.63;41.80;99976.78;6086389;23;20522;-86
2023/03/21 10:39:50;;;;;;;0.17;0.17;;;;;;;18.38;42.75;99990.75;6086796;23;20011;-87
2023/03/21 10:42:28;;;;;;;1.05;0.57;;;;;;;17.31;42.74;99993.22;6086335;23;20058;-88
2023/03/21 10:44:56;;;;;;;0.43;0.32;;;;;;;17.56;44.08;99992.63;6086980;23;20404;-86
2023/03/21 10:47:32;;;;;;;0.22;0.10;;;;;;;18.27;43.04;99990.63;6109747;23;20347;-86
2023/03/21 10:50:07;;;;;;;0.50;0.50;;;;;;;18.51;40.88;99977.91;6062677;23;20018;-85
2023/03/21 10:52:33;;;;;;;0.88;0.60;;;;;;;18.44;41.50;99983.94;6087255;23;20066;-86
2023/03/21 10:55:21;;;;;;;0.08;0.08;;;;;;;17.89;42.22;99988.81;6087306;23;20026;-85
2023/03/21 10:57:47;;;;;;;0.13;0.13;;;;;;;17.24;42.82;99982.41;6087425;23;20019;-85
2023/03/21 11:00:20;;;;;;;0.55;0.55;;;;;;;17.28;43.86;99985.78;6086782;23;20015;-85
2023/03/21 11:02:50;;;;;;;0.22;0.13;;;;;;;17.28;44.52;99980.19;6086510;23;20070;-85
2023/03/21 11:05:18;;;;;;;0.28;0.28;;;;;;;17.48;44.94;99977.47;6086389;23;20026;-85
2023/03/21 11:07:44;;;;;;;0.35;0.25;;;;;;;17.62;42.60;99979.50;6064869;23;20450;-86
2023/03/21 11:10:27;;;;;;;2.67;0.30;;;;;;;17.58;43.14;99962.09;6064451;23;20019;-86
2023/03/21 11:12:56;;;;;;;0.03;0.03;;;;;;;17.72;44.34;99968.94;6063842;23;20482;-85
2023/03/21 11:15:31;;;;;;;0.90;0.52;;;;;;;18.03;43.52;99955.09;6062090;23;20081;-85
2023/03/21 11:17:58;;;;;;;0.43;0.43;;;;;;;18.41;42.55;99956.06;6063716;23;20027;-86
2023/03/21 11:20:25;;;;;;;0.32;0.22;;;;;;;18.83;41.31;99953.50;6062792;23;20046;-86
2023/03/21 11:22:53;;;;;;;0.70;0.30;;;;;;;19.06;39.78;99940.41;6063029;23;20089;-86
2023/03/21 11:25:40;;;;;;;0.45;0.45;;;;;;;19.31;40.18;99952.91;6062910;23;20370;-86
2023/03/21 11:28:16;;;;;;;0.20;0.20;;;;;;;19.23;39.56;99952.59;6064816;23;20015;-86
2023/03/21 11:30:55;;;;;;;0.80;0.50;;;;;;;19.17;40.18;99943.31;6085639;23;20007;-86
2023/03/21 11:33:26;;;;;;;0.20;0.20;;;;;;;19.49;39.95;99930.81;6064724;23;20011;-85
2023/03/21 11:36:04;;;;;;;0.00;0.00;;;;;;;20.00;39.13;99935.50;6086509;23;20015;-86
2023/03/21 11:38:38;;;;;;;0.20;0.20;;;;;;;19.47;39.00;99933.38;6064891;23;20117;-86
2023/03/21 11:41:04;;;;;;;0.55;0.35;;;;;;;19.02;39.95;99942.69;6062462;23;20019;-86
2023/03/21 11:43:34;;;;;;;0.22;0.22;;;;;;;18.64;41.52;99924.94;6064661;23;20026;-86
2023/03/21 11:46:06;;;;;;;0.40;0.40;;;;;;;18.65;42.74;99931.34;6086058;23;20019;-85
2023/03/21 11:48:49;;;;;;;0.13;0.13;;;;;;;18.47;43.72;99935.22;6088480;23;20011;-86
2023/03/21 11:51:25;;;;;;;1.10;0.55;;;;;;;18.13;44.83;99931.22;6063149;23;20112;-86